Time;durP1;ratioP1;P1;durP2;ratioP2;P2;SDS_P1;SDS_P2;PMS_P1;PMS_P2;Temp;Humidity;BMP_temperature;BMP_pressure;BME280_temperature;BME280_humidity;BME280_pressure;Samples;Min_cycle;Max_cycle;Signal;HPM_P1;HPM_P2
2023/07/17 00:01:48;;;;;;;0.50;0.40;;;17.80;99.90;;;;;;5041890;28;20445;-82
2023/07/17 00:04:15;;;;;;;0.50;0.30;;;17.90;99.90;;;;;;5042384;28;20452;-82
2023/07/17 00:06:42;;;;;;;0.50;0.40;;;18.00;99.90;;;;;;5041910;28;20958;-82
2023/07/17 00:09:08;;;;;;;0.50;0.30;;;18.00;99.90;;;;;;5042841;28;20451;-82
2023/07/17 00:11:35;;;;;;;0.97;0.87;;;18.10;99.90;;;;;;5042014;28;20967;-82
2023/07/17 00:14:02;;;;;;;0.50;0.30;;;18.20;99.90;;;;;;5043453;28;20441;-82
2023/07/17 00:16:29;;;;;;;0.50;0.40;;;18.10;99.90;;;;;;5043145;28;20511;-81
2023/07/17 00:18:57;;;;;;;0.77;0.53;;;18.00;99.90;;;;;;5042439;28;20806;-81
2023/07/17 00:21:24;;;;;;;0.50;0.37;;;17.90;99.90;;;;;;5040847;28;20445;-81
2023/07/17 00:23:51;;;;;;;0.50;0.37;;;17.70;99.90;;;;;;5034338;28;20516;-82
2023/07/17 00:26:18;;;;;;;0.50;0.40;;;17.50;99.90;;;;;;5045722;28;20558;-81
2023/07/17 00:28:44;;;;;;;0.50;0.37;;;17.30;99.90;;;;;;5045192;28;21004;-79
2023/07/17 00:31:11;;;;;;;0.50;0.40;;;17.30;99.90;;;;;;5046148;28;20488;-81
2023/07/17 00:33:38;;;;;;;0.50;0.40;;;17.10;99.90;;;;;;5044108;28;20503;-81
2023/07/17 00:36:06;;;;;;;1.43;1.33;;;17.00;99.90;;;;;;5042519;28;20475;-81
2023/07/17 00:38:33;;;;;;;0.50;0.40;;;16.90;99.90;;;;;;5041442;28;20477;-82
2023/07/17 00:41:00;;;;;;;0.50;0.40;;;16.90;99.90;;;;;;5042136;28;20568;-81
2023/07/17 00:43:26;;;;;;;0.50;0.30;;;16.80;99.90;;;;;;5041319;28;20971;-82
2023/07/17 00:45:53;;;;;;;0.50;0.40;;;16.80;99.90;;;;;;5033884;28;20468;-82
2023/07/17 00:48:20;;;;;;;0.50;0.40;;;16.80;99.90;;;;;;5041904;28;20441;-81
2023/07/17 00:50:48;;;;;;;0.50;0.43;;;16.80;99.90;;;;;;5039867;28;20542;-81
2023/07/17 00:53:16;;;;;;;0.50;0.40;;;16.80;99.90;;;;;;5037653;28;20945;-80
2023/07/17 00:55:44;;;;;;;0.50;0.40;;;16.70;99.90;;;;;;5037418;28;20900;-80
2023/07/17 00:58:11;;;;;;;0.50;0.40;;;16.70;99.90;;;;;;5038716;28;20455;-80
2023/07/17 01:00:38;;;;;;;0.50;0.30;;;16.70;99.90;;;;;;5038877;28;20448;-80
2023/07/17 01:03:05;;;;;;;0.50;0.40;;;16.70;99.90;;;;;;5038329;28;20460;-80
2023/07/17 01:05:32;;;;;;;0.50;0.40;;;16.60;99.90;;;;;;5038450;28;20472;-80
2023/07/17 01:07:58;;;;;;;0.50;0.40;;;16.70;99.90;;;;;;5040067;28;20992;-81
2023/07/17 01:10:27;;;;;;;0.50;0.40;;;16.60;99.90;;;;;;5039277;28;20836;-81
2023/07/17 01:12:54;;;;;;;0.50;0.40;;;16.60;99.90;;;;;;5037804;28;20451;-81
2023/07/17 01:15:20;;;;;;;0.50;0.40;;;16.70;99.90;;;;;;5039028;28;20996;-79
2023/07/17 01:17:47;;;;;;;0.50;0.40;;;16.60;99.90;;;;;;5038122;28;20448;-80
2023/07/17 01:20:14;;;;;;;0.50;0.40;;;16.60;99.90;;;;;;5039953;28;20481;-81
2023/07/17 01:23:00;;;;;;;0.50;0.37;;;16.60;99.90;;;;;;5039403;28;20450;-81
2023/07/17 01:25:27;;;;;;;0.50;0.40;;;16.60;99.90;;;;;;5039055;28;20984;-81
2023/07/17 01:27:54;;;;;;;0.50;0.30;;;16.60;99.90;;;;;;5038728;28;20525;-81
2023/07/17 01:30:20;;;;;;;0.50;0.40;;;16.60;99.90;;;;;;5036978;28;20440;-81
2023/07/17 01:32:47;;;;;;;0.50;0.40;;;16.60;99.90;;;;;;5035780;28;20455;-79
2023/07/17 01:35:14;;;;;;;0.50;0.40;;;16.60;99.90;;;;;;5036274;28;20461;-80
2023/07/17 01:37:42;;;;;;;0.50;0.30;;;16.60;99.90;;;;;;5051558;28;20445;-81
2023/07/17 01:40:13;;;;;;;0.50;0.40;;;16.60;99.90;;;;;;5048506;28;20472;-81
2023/07/17 01:42:39;;;;;;;0.50;0.40;;;16.50;99.90;;;;;;5048027;28;20480;-81
2023/07/17 01:45:07;;;;;;;0.50;0.40;;;16.50;99.90;;;;;;5049122;28;21067;-82
2023/07/17 01:47:34;;;;;;;0.50;0.40;;;16.40;99.90;;;;;;5048832;28;20445;-82
2023/07/17 01:50:02;;;;;;;0.93;0.93;;;16.40;99.90;;;;;;5049102;28;20524;-82
2023/07/17 01:52:29;;;;;;;0.50;0.40;;;16.40;99.90;;;;;;5048624;28;20440;-81
2023/07/17 01:54:56;;;;;;;0.60;0.40;;;16.40;99.90;;;;;;5047649;28;20463;-81
2023/07/17 01:57:24;;;;;;;0.50;0.30;;;16.30;99.90;;;;;;5048393;28;20447;-81
2023/07/17 01:59:51;;;;;;;0.50;0.40;;;16.30;99.90;;;;;;5048152;28;20544;-82
2023/07/17 02:02:18;;;;;;;0.50;0.40;;;16.40;99.90;;;;;;5048730;28;20539;-81
2023/07/17 02:04:45;;;;;;;0.50;0.40;;;16.30;99.90;;;;;;5048470;28;20464;-81
2023/07/17 02:07:12;;;;;;;0.50;0.40;;;16.30;99.90;;;;;;5048660;28;20481;-81
2023/07/17 02:09:39;;;;;;;0.50;0.40;;;16.30;99.90;;;;;;5048564;28;20456;-80
2023/07/17 02:12:06;;;;;;;0.50;0.40;;;16.30;99.90;;;;;;5048901;28;20500;-82
2023/07/17 02:14:34;;;;;;;0.50;0.40;;;16.30;99.90;;;;;;5048944;28;20551;-81
2023/07/17 02:17:01;;;;;;;0.50;0.40;;;16.20;99.90;;;;;;5040471;28;20440;-81
2023/07/17 02:19:28;;;;;;;0.50;0.40;;;16.20;99.90;;;;;;5048779;28;21206;-82
2023/07/17 02:21:55;;;;;;;0.60;0.60;;;16.20;99.90;;;;;;5048128;28;20436;-81
2023/07/17 02:24:22;;;;;;;0.50;0.37;;;16.20;99.90;;;;;;5048263;28;20476;-81
2023/07/17 02:26:49;;;;;;;1.10;1.10;;;16.20;99.90;;;;;;5047962;28;20450;-80
2023/07/17 02:29:16;;;;;;;0.70;0.60;;;16.10;99.90;;;;;;5047538;28;20452;-81
2023/07/17 02:31:45;;;;;;;0.50;0.40;;;16.10;99.90;;;;;;5047334;28;20524;-82
2023/07/17 02:34:11;;;;;;;0.50;0.50;;;16.10;99.90;;;;;;5046688;28;20440;-82
2023/07/17 02:36:39;;;;;;;0.50;0.40;;;16.00;99.90;;;;;;5046322;28;20474;-82
2023/07/17 02:39:05;;;;;;;1.50;1.40;;;16.00;99.90;;;;;;5046741;28;20541;-81
2023/07/17 02:41:32;;;;;;;0.80;0.80;;;16.00;99.90;;;;;;5045523;28;20448;-81
2023/07/17 02:43:59;;;;;;;0.50;0.33;;;16.00;99.90;;;;;;5046103;28;20468;-82
2023/07/17 02:46:26;;;;;;;0.50;0.40;;;16.00;99.90;;;;;;5046657;28;20445;-82
2023/07/17 02:48:54;;;;;;;0.50;0.40;;;16.00;99.90;;;;;;5045751;28;20440;-81
2023/07/17 02:51:21;;;;;;;0.50;0.37;;;16.00;99.90;;;;;;5045646;28;20447;-81
2023/07/17 02:53:48;;;;;;;1.00;0.97;;;16.00;99.90;;;;;;5045829;28;20453;-81
2023/07/17 02:56:15;;;;;;;0.50;0.40;;;16.00;99.90;;;;;;5046414;28;20455;-81
2023/07/17 02:58:43;;;;;;;0.70;0.67;;;16.00;99.90;;;;;;5045676;28;20440;-81
2023/07/17 03:01:10;;;;;;;0.50;0.40;;;15.90;99.90;;;;;;5046049;28;20441;-81
2023/07/17 03:03:37;;;;;;;0.50;0.40;;;15.90;99.90;;;;;;5045412;28;20440;-81
2023/07/17 03:06:05;;;;;;;0.50;0.50;;;15.90;99.90;;;;;;5045133;28;20550;-81
2023/07/17 03:08:32;;;;;;;0.50;0.40;;;15.90;99.90;;;;;;5045694;28;20448;-81
2023/07/17 03:11:03;;;;;;;0.50;0.40;;;15.90;99.90;;;;;;5045406;28;20447;-81
2023/07/17 03:13:30;;;;;;;0.50;0.40;;;15.80;99.90;;;;;;5045051;28;20448;-81
2023/07/17 03:15:58;;;;;;;0.50;0.50;;;15.80;99.90;;;;;;5045575;28;20530;-81
2023/07/17 03:18:25;;;;;;;0.50;0.33;;;15.80;99.90;;;;;;5044996;28;20531;-81
2023/07/17 03:20:52;;;;;;;0.50;0.40;;;15.70;99.90;;;;;;5045157;28;20575;-82
2023/07/17 03:23:20;;;;;;;1.47;0.60;;;15.70;99.90;;;;;;5041682;28;20440;-81
2023/07/17 03:25:47;;;;;;;0.60;0.60;;;15.70;99.90;;;;;;5042031;28;20460;-80
2023/07/17 03:28:14;;;;;;;0.50;0.40;;;15.60;99.90;;;;;;5035111;28;20445;-82
2023/07/17 03:30:41;;;;;;;0.50;0.40;;;15.60;99.90;;;;;;5034529;28;20447;-81
2023/07/17 03:33:08;;;;;;;1.37;0.90;;;15.50;99.90;;;;;;5033597;28;20448;-81
2023/07/17 03:35:34;;;;;;;0.50;0.40;;;15.50;99.90;;;;;;5033670;28;20468;-80
2023/07/17 03:38:01;;;;;;;0.50;0.40;;;15.40;99.90;;;;;;5035627;28;20466;-81
2023/07/17 03:40:29;;;;;;;0.50;0.40;;;15.40;99.90;;;;;;5034980;28;20511;-82
2023/07/17 03:42:56;;;;;;;0.50;0.40;;;15.40;99.90;;;;;;5035220;28;20451;-81
2023/07/17 03:45:23;;;;;;;0.50;0.40;;;15.40;99.90;;;;;;5033855;28;20478;-81
2023/07/17 03:47:51;;;;;;;0.50;0.40;;;15.30;99.90;;;;;;5033755;28;20886;-81
2023/07/17 03:50:18;;;;;;;0.50;0.40;;;15.30;99.90;;;;;;5037124;28;20445;-81
2023/07/17 03:52:45;;;;;;;0.50;0.40;;;15.30;99.90;;;;;;5036824;28;21020;-81
2023/07/17 03:55:11;;;;;;;0.50;0.40;;;15.30;99.90;;;;;;5035414;28;20991;-80
2023/07/17 03:57:40;;;;;;;0.50;0.37;;;15.20;99.90;;;;;;5033706;28;20790;-80
2023/07/17 04:00:12;;;;;;;0.50;0.40;;;15.20;99.90;;;;;;5037154;28;20559;-80
2023/07/17 04:02:39;;;;;;;0.50;0.40;;;15.30;99.90;;;;;;5038624;28;20842;-80
2023/07/17 04:05:07;;;;;;;0.50;0.40;;;15.20;99.90;;;;;;5038059;28;20468;-81
2023/07/17 04:07:33;;;;;;;0.50;0.50;;;15.20;99.90;;;;;;5037609;28;20455;-81
2023/07/17 04:10:00;;;;;;;0.50;0.40;;;15.20;99.90;;;;;;5038140;28;20440;-80
2023/07/17 04:12:27;;;;;;;0.80;0.80;;;15.20;99.90;;;;;;5037698;28;20954;-81
2023/07/17 04:14:55;;;;;;;0.50;0.40;;;15.20;99.90;;;;;;5038607;28;20473;-81
2023/07/17 04:17:22;;;;;;;0.50;0.40;;;15.20;99.90;;;;;;5041916;28;20488;-81
2023/07/17 04:19:49;;;;;;;0.60;0.50;;;15.20;99.90;;;;;;5036761;28;20480;-80
2023/07/17 04:22:15;;;;;;;0.50;0.50;;;15.20;99.90;;;;;;5038299;28;20818;-81
2023/07/17 04:24:42;;;;;;;0.50;0.40;;;15.30;99.90;;;;;;5038495;28;20559;-81
2023/07/17 04:27:09;;;;;;;0.50;0.40;;;15.30;99.90;;;;;;5044676;28;20449;-81
2023/07/17 04:29:36;;;;;;;0.50;0.40;;;15.30;99.90;;;;;;5045731;28;20447;-80
2023/07/17 04:32:04;;;;;;;0.50;0.40;;;15.30;99.90;;;;;;5044460;28;20534;-81
2023/07/17 04:34:31;;;;;;;0.50;0.40;;;15.30;99.90;;;;;;5044488;28;20551;-81
2023/07/17 04:36:58;;;;;;;0.60;0.50;;;15.30;99.90;;;;;;5044480;28;20494;-81
2023/07/17 04:39:25;;;;;;;0.50;0.40;;;15.30;99.90;;;;;;5044653;28;20967;-82
2023/07/17 04:41:52;;;;;;;0.50;0.40;;;15.30;99.90;;;;;;5043689;28;20451;-81
2023/07/17 04:44:19;;;;;;;0.50;0.40;;;15.40;99.90;;;;;;5044404;28;20560;-81
2023/07/17 04:46:46;;;;;;;0.50;0.40;;;15.40;99.90;;;;;;5044985;28;20459;-81
2023/07/17 04:49:14;;;;;;;0.50;0.40;;;15.40;99.90;;;;;;5043599;28;20448;-80
2023/07/17 04:51:41;;;;;;;0.50;0.40;;;15.50;99.90;;;;;;5043133;28;20482;-81
2023/07/17 04:54:07;;;;;;;0.50;0.40;;;15.50;99.90;;;;;;5042828;28;20515;-82
2023/07/17 04:56:34;;;;;;;0.50;0.40;;;15.50;99.90;;;;;;5043396;28;20451;-82
2023/07/17 04:59:01;;;;;;;0.50;0.40;;;15.50;99.90;;;;;;5042995;28;20450;-81
2023/07/17 05:01:27;;;;;;;0.50;0.40;;;15.50;99.90;;;;;;5038312;28;20480;-80
2023/07/17 05:03:54;;;;;;;0.50;0.40;;;15.60;99.90;;;;;;5035825;28;20945;-80
2023/07/17 05:06:22;;;;;;;0.63;0.63;;;15.60;99.90;;;;;;5035621;28;20468;-80
2023/07/17 05:08:49;;;;;;;0.50;0.40;;;15.60;99.90;;;;;;5035929;28;20540;-82
2023/07/17 05:11:16;;;;;;;0.50;0.40;;;15.70;99.90;;;;;;5028830;28;20444;-81
2023/07/17 05:13:43;;;;;;;5.93;1.23;;;15.70;99.90;;;;;;5036251;28;20539;-82
2023/07/17 05:16:10;;;;;;;0.50;0.40;;;15.80;99.90;;;;;;5038189;28;20468;-81
2023/07/17 05:18:36;;;;;;;0.50;0.40;;;15.80;99.90;;;;;;5036440;28;20956;-80
2023/07/17 05:21:03;;;;;;;0.50;0.40;;;15.80;99.90;;;;;;5034642;28;20477;-81
2023/07/17 05:23:31;;;;;;;1.20;1.20;;;15.80;99.90;;;;;;5035140;28;20454;-82
2023/07/17 05:26:00;;;;;;;0.50;0.40;;;15.90;99.90;;;;;;5034699;28;20465;-80
2023/07/17 05:28:27;;;;;;;1.00;0.97;;;15.90;99.90;;;;;;5035452;28;20448;-81
2023/07/17 05:30:55;;;;;;;0.50;0.40;;;16.00;99.90;;;;;;5034895;28;20480;-81
2023/07/17 05:33:22;;;;;;;0.50;0.40;;;16.00;99.90;;;;;;5036708;28;20445;-82
2023/07/17 05:35:49;;;;;;;0.50;0.40;;;16.10;99.90;;;;;;5041193;28;20464;-81
2023/07/17 05:38:16;;;;;;;0.50;0.40;;;16.10;99.90;;;;;;5035679;28;20445;-81
2023/07/17 05:40:44;;;;;;;0.50;0.40;;;16.20;99.90;;;;;;5035395;28;20467;-83
2023/07/17 05:43:11;;;;;;;0.70;0.70;;;16.30;99.90;;;;;;5034406;28;20539;-81
2023/07/17 05:45:38;;;;;;;0.50;0.40;;;16.30;99.90;;;;;;5037578;28;20466;-83
2023/07/17 05:48:05;;;;;;;0.50;0.50;;;16.40;99.90;;;;;;5037839;28;20517;-84
2023/07/17 05:50:32;;;;;;;0.80;0.77;;;16.50;99.90;;;;;;5037152;28;20441;-82
2023/07/17 05:52:59;;;;;;;0.60;0.47;;;16.60;99.90;;;;;;5036427;28;20440;-81
2023/07/17 05:55:26;;;;;;;3.20;2.70;;;16.70;99.90;;;;;;5037459;28;20462;-82
2023/07/17 05:57:54;;;;;;;0.53;0.40;;;16.70;99.90;;;;;;5035983;28;20451;-83
2023/07/17 06:00:21;;;;;;;0.80;0.80;;;16.80;99.90;;;;;;5028606;28;20489;-82
2023/07/17 06:02:48;;;;;;;0.50;0.40;;;16.90;99.90;;;;;;5035825;28;20536;-82
2023/07/17 06:05:15;;;;;;;0.50;0.40;;;16.90;99.90;;;;;;5060194;22;20497;-79
2023/07/17 06:07:42;;;;;;;0.50;0.40;;;17.00;99.90;;;;;;5083180;28;20431;-77
2023/07/17 06:10:09;;;;;;;0.50;0.40;;;17.10;99.90;;;;;;5076002;28;20440;-81
2023/07/17 06:12:36;;;;;;;0.53;0.50;;;17.10;99.90;;;;;;5075242;28;20435;-81
2023/07/17 06:15:06;;;;;;;0.50;0.37;;;17.20;99.90;;;;;;5074697;28;20461;-80
2023/07/17 06:17:33;;;;;;;0.50;0.37;;;17.30;99.90;;;;;;5072456;28;20432;-80
2023/07/17 06:19:59;;;;;;;0.50;0.30;;;17.40;99.90;;;;;;5072613;28;20486;-80
2023/07/17 06:22:26;;;;;;;1.47;1.37;;;17.60;99.90;;;;;;5075061;28;20453;-81
2023/07/17 06:24:53;;;;;;;0.50;0.50;;;17.80;99.90;;;;;;5076226;28;20439;-80
2023/07/17 06:27:20;;;;;;;0.50;0.30;;;17.80;99.90;;;;;;5072929;28;20466;-81
2023/07/17 06:29:46;;;;;;;0.60;0.50;;;17.90;99.90;;;;;;5071541;28;20485;-80
2023/07/17 06:32:14;;;;;;;0.67;0.67;;;18.10;99.90;;;;;;5073833;28;20450;-80
2023/07/17 06:34:42;;;;;;;0.70;0.60;;;18.20;99.90;;;;;;5075880;28;20827;-79
2023/07/17 06:37:09;;;;;;;0.50;0.40;;;18.20;99.90;;;;;;5074991;28;20439;-81
2023/07/17 06:39:35;;;;;;;0.50;0.40;;;18.40;99.90;;;;;;5072943;28;20440;-80
2023/07/17 06:42:02;;;;;;;7.30;3.80;;;18.60;99.90;;;;;;5072457;28;20478;-81
2023/07/17 06:44:29;;;;;;;0.50;0.40;;;19.00;99.90;;;;;;5077269;28;20442;-80
2023/07/17 06:46:55;;;;;;;0.50;0.40;;;19.20;99.90;;;;;;5077155;28;20469;-80
2023/07/17 06:49:24;;;;;;;1.03;0.40;;;19.30;99.90;;;;;;5081967;28;20466;-80
2023/07/17 06:51:50;;;;;;;0.50;0.37;;;19.70;99.90;;;;;;5073433;28;20441;-80
2023/07/17 06:54:17;;;;;;;0.50;0.40;;;20.20;99.90;;;;;;5076307;28;20450;-80
2023/07/17 06:56:44;;;;;;;0.57;0.50;;;20.70;99.90;;;;;;5077185;28;20460;-80
2023/07/17 06:59:11;;;;;;;0.90;0.50;;;20.90;99.90;;;;;;5075720;28;20768;-80
2023/07/17 07:01:37;;;;;;;0.60;0.60;;;20.80;99.90;;;;;;5072969;28;21016;-80
2023/07/17 07:04:05;;;;;;;1.37;0.83;;;20.90;99.90;;;;;;5072234;28;20457;-81
2023/07/17 07:06:33;;;;;;;0.50;0.40;;;20.80;99.90;;;;;;5075819;28;20489;-81
2023/07/17 07:08:59;;;;;;;0.50;0.30;;;20.80;99.90;;;;;;5076232;28;20454;-80
2023/07/17 07:11:26;;;;;;;0.80;0.53;;;21.30;99.90;;;;;;5074809;28;20471;-77
2023/07/17 07:13:53;;;;;;;2.63;2.20;;;21.40;99.90;;;;;;5075122;28;20443;-81
2023/07/17 07:16:20;;;;;;;0.80;0.67;;;21.60;99.90;;;;;;5072537;28;20461;-81
2023/07/17 07:18:46;;;;;;;0.50;0.30;;;21.60;99.90;;;;;;5072996;28;20443;-80
2023/07/17 07:21:14;;;;;;;0.50;0.33;;;21.90;99.90;;;;;;5074793;28;20476;-81
2023/07/17 07:23:42;;;;;;;0.60;0.50;;;21.90;99.90;;;;;;5075967;28;20446;-80
2023/07/17 07:26:08;;;;;;;0.50;0.30;;;21.60;99.90;;;;;;5074939;28;20457;-79
2023/07/17 07:28:35;;;;;;;0.80;0.77;;;21.40;99.90;;;;;;5073361;28;20443;-80
2023/07/17 07:31:02;;;;;;;0.50;0.40;;;21.10;99.90;;;;;;5072768;28;20446;-80
2023/07/17 07:33:29;;;;;;;0.50;0.30;;;21.00;99.90;;;;;;5063851;28;20476;-80
2023/07/17 07:35:56;;;;;;;0.87;0.87;;;21.00;99.90;;;;;;5073191;28;20467;-80
2023/07/17 07:38:23;;;;;;;0.73;0.73;;;20.80;99.90;;;;;;5075161;28;20444;-80
2023/07/17 07:40:51;;;;;;;2.33;2.23;;;20.60;99.90;;;;;;5076020;28;20554;-80
2023/07/17 07:43:18;;;;;;;1.57;0.97;;;20.90;99.90;;;;;;5073350;28;20446;-81
2023/07/17 07:45:45;;;;;;;1.07;0.83;;;21.30;99.90;;;;;;5072463;28;20456;-81
2023/07/17 07:48:12;;;;;;;0.50;0.30;;;21.60;99.90;;;;;;5072201;28;20527;-81
2023/07/17 07:50:39;;;;;;;0.90;0.57;;;21.60;99.90;;;;;;5074338;28;20434;-81
2023/07/17 07:53:05;;;;;;;0.67;0.60;;;21.40;99.90;;;;;;5073451;28;20475;-79
2023/07/17 07:55:32;;;;;;;1.70;0.60;;;21.50;99.90;;;;;;5067265;28;20549;-79
2023/07/17 07:58:00;;;;;;;0.70;0.50;;;21.50;99.90;;;;;;5066997;28;20447;-79
2023/07/17 08:00:27;;;;;;;1.53;0.80;;;21.60;99.90;;;;;;5070400;28;20446;-79
2023/07/17 08:02:54;;;;;;;0.50;0.40;;;22.00;99.90;;;;;;5070767;28;20460;-79
2023/07/17 08:05:22;;;;;;;3.23;2.97;;;22.30;99.90;;;;;;5068003;28;20461;-80
2023/07/17 08:07:48;;;;;;;0.50;0.50;;;22.40;99.90;;;;;;5067566;28;20435;-79
2023/07/17 08:10:15;;;;;;;0.50;0.30;;;22.10;99.90;;;;;;5067252;28;20447;-79
2023/07/17 08:12:42;;;;;;;0.50;0.30;;;21.90;99.90;;;;;;5070130;28;20438;-79
2023/07/17 08:15:11;;;;;;;0.83;0.83;;;22.10;99.90;;;;;;5070225;28;20563;-78
2023/07/17 08:17:37;;;;;;;0.60;0.57;;;22.50;99.90;;;;;;5067634;28;20445;-80
2023/07/17 08:20:06;;;;;;;0.50;0.30;;;22.80;99.90;;;;;;5068681;28;20454;-80
2023/07/17 08:22:32;;;;;;;0.50;0.40;;;23.60;99.90;;;;;;5071565;28;20482;-79
2023/07/17 08:24:59;;;;;;;0.50;0.40;;;24.20;99.20;;;;;;5072132;28;20656;-79
2023/07/17 08:27:26;;;;;;;0.60;0.60;;;24.50;96.30;;;;;;5069608;28;20980;-79
2023/07/17 08:29:53;;;;;;;0.50;0.30;;;24.60;94.10;;;;;;5067931;28;20443;-79
2023/07/17 08:32:21;;;;;;;0.50;0.40;;;24.60;92.80;;;;;;5067486;28;20441;-79
2023/07/17 08:34:48;;;;;;;0.60;0.50;;;24.70;90.10;;;;;;5067619;28;20472;-78
2023/07/17 08:37:15;;;;;;;2.60;1.33;;;24.50;90.80;;;;;;5068316;28;20527;-79
2023/07/17 08:39:41;;;;;;;1.53;0.50;;;24.40;90.80;;;;;;5071273;28;20533;-79
2023/07/17 08:42:09;;;;;;;0.50;0.30;;;24.60;90.40;;;;;;5071401;28;20482;-79
2023/07/17 08:44:36;;;;;;;0.50;0.40;;;24.80;90.20;;;;;;5068122;28;20444;-79
2023/07/17 08:47:05;;;;;;;0.50;0.40;;;25.10;88.70;;;;;;5072491;28;20527;-77
2023/07/17 08:49:34;;;;;;;0.50;0.30;;;25.80;88.00;;;;;;5066687;28;20448;-79
2023/07/17 08:52:03;;;;;;;1.97;1.80;;;26.20;86.40;;;;;;5066148;28;20439;-78
2023/07/17 08:54:30;;;;;;;0.50;0.30;;;26.70;83.50;;;;;;5069072;28;20449;-78
2023/07/17 08:57:02;;;;;;;0.50;0.40;;;26.90;81.10;;;;;;5068933;28;20483;-79
2023/07/17 08:59:30;;;;;;;1.80;0.93;;;26.30;81.90;;;;;;5067785;28;20442;-81
2023/07/17 09:01:57;;;;;;;0.50;0.30;;;26.40;81.80;;;;;;5075209;28;20480;-81
2023/07/17 09:04:25;;;;;;;0.53;0.47;;;25.70;83.50;;;;;;5073810;28;20459;-78
2023/07/17 09:06:53;;;;;;;3.07;1.43;;;26.30;83.00;;;;;;5075514;28;20471;-82
2023/07/17 09:09:20;;;;;;;0.60;0.50;;;26.20;81.60;;;;;;5076544;28;20443;-82
2023/07/17 09:11:47;;;;;;;2.30;0.60;;;26.60;81.20;;;;;;5071173;28;20497;-76
2023/07/17 09:14:14;;;;;;;0.90;0.90;;;26.80;79.60;;;;;;5072628;28;20527;-80
2023/07/17 09:16:40;;;;;;;0.50;0.40;;;27.10;77.10;;;;;;5070494;28;20455;-76
2023/07/17 09:19:07;;;;;;;0.50;0.30;;;26.70;75.60;;;;;;5068738;28;20493;-78
2023/07/17 09:21:34;;;;;;;0.67;0.67;;;26.20;77.80;;;;;;5065295;28;20575;-79
2023/07/17 09:24:02;;;;;;;0.50;0.40;;;25.60;79.10;;;;;;5073260;28;20462;-79
2023/07/17 09:26:30;;;;;;;2.07;0.57;;;25.40;78.50;;;;;;5068401;28;20472;-78
2023/07/17 09:28:58;;;;;;;0.50;0.30;;;25.60;79.20;;;;;;5069414;28;20443;-79
2023/07/17 09:31:27;;;;;;;0.50;0.30;;;25.70;78.10;;;;;;5074311;28;20514;-80
2023/07/17 09:33:54;;;;;;;0.50;0.30;;;26.10;77.40;;;;;;5074602;28;20445;-79
2023/07/17 09:36:22;;;;;;;2.40;2.30;;;25.80;78.00;;;;;;5070460;28;20467;-81
2023/07/17 09:38:52;;;;;;;0.60;0.50;;;26.00;79.40;;;;;;5077819;28;20442;-80
2023/07/17 09:41:23;;;;;;;0.50;0.40;;;26.40;76.80;;;;;;5076667;28;20474;-81
2023/07/17 09:43:54;;;;;;;0.50;0.40;;;25.80;75.80;;;;;;5069495;28;20490;-77
2023/07/17 09:46:22;;;;;;;0.80;0.67;;;25.10;77.60;;;;;;5065578;28;20481;-79
2023/07/17 09:48:51;;;;;;;0.60;0.50;;;25.00;79.40;;;;;;5067767;28;20518;-79
2023/07/17 09:51:19;;;;;;;0.50;0.30;;;25.50;77.70;;;;;;5067002;28;20508;-78
2023/07/17 09:53:46;;;;;;;0.50;0.50;;;25.00;76.20;;;;;;5065404;28;20447;-81
2023/07/17 09:56:15;;;;;;;0.50;0.50;;;24.10;79.00;;;;;;5073627;28;20463;-80
2023/07/17 09:58:46;;;;;;;0.53;0.43;;;23.50;81.20;;;;;;5065494;28;20439;-81
2023/07/17 10:01:16;;;;;;;0.50;0.30;;;23.80;85.10;;;;;;5069059;28;20482;-82
2023/07/17 10:03:46;;;;;;;0.50;0.30;;;24.40;80.30;;;;;;5073308;28;20436;-81
2023/07/17 10:06:14;;;;;;;0.50;0.40;;;25.00;78.90;;;;;;5065861;28;20470;-80
2023/07/17 10:08:46;;;;;;;0.67;0.50;;;25.70;77.10;;;;;;5068982;28;20431;-79
2023/07/17 10:11:14;;;;;;;0.50;0.30;;;26.40;73.10;;;;;;5072261;28;20431;-81
2023/07/17 10:13:42;;;;;;;0.50;0.30;;;26.20;72.30;;;;;;5066136;28;20840;-78
2023/07/17 10:16:10;;;;;;;0.50;0.30;;;26.10;72.00;;;;;;5069068;28;20459;-79
2023/07/17 10:18:46;;;;;;;0.50;0.30;;;25.90;71.80;;;;;;5072830;28;20446;-79
2023/07/17 10:21:15;;;;;;;0.50;0.30;;;26.10;74.00;;;;;;5073982;28;20473;-79
2023/07/17 10:23:43;;;;;;;0.50;0.40;;;26.30;73.20;;;;;;5070132;28;20502;-79
2023/07/17 10:26:11;;;;;;;0.50;0.30;;;27.00;72.50;;;;;;5059563;28;20822;-79
2023/07/17 10:28:38;;;;;;;0.50;0.30;;;27.20;72.30;;;;;;4707421;28;10000455;-78
2023/07/17 10:31:11;;;;;;;0.50;0.30;;;27.30;70.70;;;;;;5061899;28;20203;-79
2023/07/17 10:33:39;;;;;;;0.50;0.40;;;28.10;69.50;;;;;;5055811;28;20451;-80
2023/07/17 10:36:06;;;;;;;0.50;0.30;;;28.70;70.30;;;;;;5067043;28;20465;-81
2023/07/17 10:38:36;;;;;;;0.50;0.30;;;29.30;68.10;;;;;;5070748;28;20471;-80
2023/07/17 10:41:05;;;;;;;0.60;0.40;;;29.10;67.30;;;;;;5066075;28;20452;-81
2023/07/17 10:43:33;;;;;;;0.50;0.30;;;28.90;65.40;;;;;;5064672;28;20441;-80
2023/07/17 10:46:00;;;;;;;0.73;0.73;;;28.50;66.50;;;;;;5065329;28;20467;-79
2023/07/17 10:48:34;;;;;;;0.63;0.57;;;28.30;66.50;;;;;;5073761;28;20447;-78
2023/07/17 10:51:01;;;;;;;0.50;0.40;;;27.70;68.00;;;;;;5062671;28;20537;-78
2023/07/17 10:53:28;;;;;;;0.50;0.40;;;26.80;69.20;;;;;;5062196;28;20458;-79
2023/07/17 10:55:55;;;;;;;0.50;0.40;;;27.00;71.10;;;;;;5061877;28;20464;-78
2023/07/17 10:58:23;;;;;;;0.50;0.30;;;26.20;69.60;;;;;;5046019;28;20451;-77
2023/07/17 11:00:50;;;;;;;0.50;0.30;;;25.30;73.60;;;;;;5056432;28;20436;-79
2023/07/17 11:03:20;;;;;;;0.50;0.40;;;24.70;75.40;;;;;;5058489;28;20485;-78
2023/07/17 11:05:48;;;;;;;0.70;0.70;;;24.20;78.30;;;;;;5059222;28;21024;-78
2023/07/17 11:08:15;;;;;;;0.97;0.70;;;23.60;79.20;;;;;;5051061;28;20446;-79
2023/07/17 11:10:44;;;;;;;0.50;0.37;;;22.70;80.60;;;;;;5063362;28;21058;-79
2023/07/17 11:13:11;;;;;;;0.50;0.40;;;22.60;84.50;;;;;;5064416;28;20531;-79
2023/07/17 11:15:39;;;;;;;0.50;0.30;;;22.60;86.10;;;;;;5067523;28;20538;-79
2023/07/17 11:18:07;;;;;;;0.50;0.40;;;22.80;89.20;;;;;;5070109;28;20464;-79
2023/07/17 11:20:34;;;;;;;0.50;0.30;;;22.80;87.30;;;;;;5068769;28;20477;-80
2023/07/17 11:23:04;;;;;;;0.50;0.40;;;22.90;89.10;;;;;;5081200;28;20538;-81
2023/07/17 11:25:34;;;;;;;0.50;0.30;;;22.70;89.30;;;;;;5065269;28;20470;-81
2023/07/17 11:28:01;;;;;;;0.50;0.30;;;23.20;91.00;;;;;;5071901;28;20447;-80
2023/07/17 11:30:30;;;;;;;0.50;0.40;;;24.80;90.50;;;;;;5072472;28;20517;-82
2023/07/17 11:33:01;;;;;;;0.50;0.30;;;26.30;81.90;;;;;;5064182;28;20440;-83
2023/07/17 11:35:45;;;;;;;0.50;0.30;;;27.10;76.60;;;;;;5070141;28;20545;-80
2023/07/17 11:38:15;;;;;;;0.50;0.30;;;26.80;73.90;;;;;;5069186;28;20441;-81
2023/07/17 11:40:56;;;;;;;0.70;0.70;;;27.20;74.70;;;;;;5058580;28;20448;-80
2023/07/17 11:43:32;;;;;;;1.60;1.33;;;27.60;71.30;;;;;;5051077;28;20472;-79
2023/07/17 11:46:02;;;;;;;0.80;0.70;;;26.90;74.50;;;;;;5048597;28;20575;-79
2023/07/17 11:48:29;;;;;;;0.50;0.40;;;26.40;73.80;;;;;;5049111;28;20993;-79
2023/07/17 11:50:57;;;;;;;0.50;0.40;;;25.70;77.10;;;;;;5056617;28;20468;-78
2023/07/17 11:53:26;;;;;;;0.50;0.40;;;25.00;77.40;;;;;;5055554;28;20507;-80
2023/07/17 11:55:54;;;;;;;0.50;0.30;;;24.50;78.00;;;;;;5065630;28;20471;-80
2023/07/17 11:58:22;;;;;;;0.50;0.40;;;24.10;79.50;;;;;;5063799;28;20494;-79
2023/07/17 12:00:51;;;;;;;0.50;0.40;;;23.70;80.70;;;;;;5075532;28;20546;-78
2023/07/17 12:03:18;;;;;;;0.60;0.50;;;23.40;83.00;;;;;;5062528;28;20574;-80
2023/07/17 12:05:45;;;;;;;0.50;0.33;;;23.20;83.10;;;;;;5065491;28;20494;-80
2023/07/17 12:08:12;;;;;;;3.47;3.10;;;23.20;84.10;;;;;;5059230;28;20487;-80
2023/07/17 12:10:40;;;;;;;0.70;0.70;;;23.00;83.70;;;;;;5076361;28;20526;-79
2023/07/17 12:13:07;;;;;;;1.23;1.10;;;22.80;83.50;;;;;;5084069;22;20445;-81
2023/07/17 12:15:34;;;;;;;0.50;0.30;;;22.70;86.40;;;;;;5050391;28;20481;-82
2023/07/17 12:18:01;;;;;;;0.73;0.67;;;23.00;85.60;;;;;;5061533;28;20523;-82
2023/07/17 12:20:32;;;;;;;0.50;0.50;;;22.80;86.70;;;;;;5061230;28;20440;-83
2023/07/17 12:22:59;;;;;;;1.20;1.10;;;22.50;86.10;;;;;;5056470;28;20475;-82
2023/07/17 12:25:26;;;;;;;0.50;0.30;;;22.50;88.60;;;;;;5062387;28;20446;-82
2023/07/17 12:28:00;;;;;;;0.50;0.40;;;22.80;91.50;;;;;;5062794;28;20539;-83
2023/07/17 12:30:27;;;;;;;0.50;0.30;;;23.70;88.90;;;;;;5062633;28;20448;-80
2023/07/17 12:32:54;;;;;;;0.50;0.30;;;24.00;87.70;;;;;;5063124;28;20547;-83
2023/07/17 12:35:21;;;;;;;0.50;0.30;;;24.40;86.90;;;;;;5062450;28;20451;-82
2023/07/17 12:37:48;;;;;;;0.50;0.30;;;24.30;83.00;;;;;;5061703;28;20474;-83
2023/07/17 12:40:14;;;;;;;0.50;0.30;;;24.40;87.70;;;;;;5061408;28;20448;-83
2023/07/17 12:42:41;;;;;;;0.50;0.40;;;24.70;82.90;;;;;;5061447;28;20732;-82
2023/07/17 12:45:10;;;;;;;0.50;0.30;;;25.40;83.80;;;;;;5062249;28;20499;-84
2023/07/17 12:47:37;;;;;;;0.70;0.70;;;25.20;77.80;;;;;;5061989;28;20507;-82